This is the latest recevied weather packets stored in our database for station/object K9VSK-9. If no packets are shown the sender has not sent any weather packets the latest 10 day(s).
| Time | Temp. | Humidity | Pressure | Rain* | Wind** | Luminosity | Snow |
|---|---|---|---|---|---|---|---|
| 1787777316 | 28.33° C | 68% | 1013.7 hPa | 0 mm | - | - | - |
| 1787776716 | 28.33° C | 68% | 1013.7 hPa | 0 mm | - | - | - |
| 1787776416 | 27.78° C | 70% | 1013.8 hPa | 0 mm | - | - | - |
| 1787776115 | 27.78° C | 68% | 1013.8 hPa | 0 mm | - | - | - |
| 1787775515 | 28.33° C | 65% | 1013.8 hPa | 0 mm | - | - | - |
| 1787775214 | 27.78° C | 71% | 1013.9 hPa | 0 mm | - | - | - |
| 1787774914 | 27.78° C | 67% | 1013.9 hPa | 0 mm | - | - | - |
| 1787774614 | 27.78° C | 70% | 1014 hPa | 0 mm | - | - | - |
| 1787774314 | 27.78° C | 68% | 1014 hPa | 0 mm | - | - | - |
| 1787774013 | 28.33° C | 67% | 1013.9 hPa | 0 mm | - | - | - |
| 1787773713 | 28.33° C | 65% | 1013.9 hPa | 0 mm | - | - | - |
| 1787773413 | 27.78° C | 69% | 1013.9 hPa | 0 mm | - | - | - |
| 1787773112 | 28.33° C | 69% | 1013.8 hPa | 0 mm | - | - | - |
| 1787772812 | 28.33° C | 69% | 1013.7 hPa | 0 mm | - | - | - |
| 1787772512 | 28.33° C | 67% | 1013.7 hPa | 0 mm | - | - | - |
| 1787772212 | 28.33° C | 68% | 1013.7 hPa | 0 mm | - | - | - |
| 1787771911 | 27.78° C | 69% | 1013.7 hPa | 0 mm | - | - | - |
| 1787771611 | 28.33° C | 68% | 1013.6 hPa | 0 mm | - | - | - |
| 1787771311 | 28.33° C | 67% | 1013.6 hPa | 0 mm | - | - | - |
| 1787771010 | 28.33° C | 66% | 1013.6 hPa | 0 mm | - | - | - |
| 1787770710 | 28.33° C | 67% | 1013.6 hPa | 0 mm | - | - | - |
| 1787770410 | 28.33° C | 69% | 1013.6 hPa | 0 mm | - | - | - |
| 1787769509 | 28.33° C | 73% | 1013.7 hPa | 0 mm | - | - | - |
| 1787769209 | 28.33° C | 69% | 1013.7 hPa | 0 mm | - | - | - |
| 1787768908 | 27.78° C | 72% | 1013.9 hPa | 0 mm | - | - | - |
* Rain latest hour (hover to see other rain measurements)
** Current wind speed in m/s (hover to see current wind gust speed)